createdAt,value
2022-08-29T00:00:27.134Z,99273.06
2022-08-29T00:02:56.677Z,99286.06
2022-08-29T00:05:28.185Z,99257.94
2022-08-29T00:07:56.733Z,99262.19
2022-08-29T00:10:23.326Z,99243.63
2022-08-29T00:12:50.242Z,99233.75
2022-08-29T00:15:17.321Z,99209.03
2022-08-29T00:17:43.985Z,99205.75
2022-08-29T00:20:14.099Z,99192.63
2022-08-29T00:22:40.869Z,99172.03
2022-08-29T00:25:08.495Z,99191.84
2022-08-29T00:27:35.279Z,99181.50
2022-08-29T00:30:02.178Z,99201.75
2022-08-29T00:32:35.001Z,99215.34
2022-08-29T00:35:23.690Z,99217.25
2022-08-29T00:37:52.115Z,99219.19
2022-08-29T00:40:23.454Z,99223.09
2022-08-29T00:42:50.160Z,99214.66
2022-08-29T00:45:18.216Z,99225.00
2022-08-29T00:47:52.842Z,99225.34
2022-08-29T00:50:26.358Z,99232.47
2022-08-29T00:52:53.279Z,99234.97
2022-08-29T00:55:22.586Z,99234.03
2022-08-29T00:57:55.657Z,99241.25
2022-08-29T01:00:23.023Z,99229.09
2022-08-29T01:02:50.802Z,99234.53
2022-08-29T01:05:19.843Z,99234.84
2022-08-29T01:07:47.693Z,99238.47
2022-08-29T01:10:35.186Z,99242.94
2022-08-29T01:13:03.401Z,99230.91
2022-08-29T01:15:34.106Z,99222.03
2022-08-29T01:18:03.094Z,99209.56
2022-08-29T01:21:00.533Z,99215.59
2022-08-29T01:23:34.339Z,99205.38
2022-08-29T01:26:02.231Z,99202.38
2022-08-29T01:28:32.013Z,99213.69
2022-08-29T01:31:09.511Z,99205.50
2022-08-29T01:33:57.076Z,99193.44
2022-08-29T01:36:26.680Z,99182.47
2022-08-29T01:38:54.216Z,99177.41
2022-08-29T01:41:22.810Z,99173.66
2022-08-29T01:43:52.013Z,99188.00
2022-08-29T01:46:21.945Z,99194.88
2022-08-29T01:48:48.652Z,99177.59
2022-08-29T01:51:15.977Z,99198.16
2022-08-29T01:53:42.757Z,99200.69
2022-08-29T01:56:15.944Z,99177.28
2022-08-29T01:58:43.633Z,99148.13
2022-08-29T02:01:10.660Z,99159.22
2022-08-29T02:03:37.340Z,99157.09
2022-08-29T02:06:04.499Z,99167.09
2022-08-29T02:08:31.366Z,99165.34
2022-08-29T02:10:58.545Z,99178.75
2022-08-29T02:13:25.228Z,99174.69
2022-08-29T02:15:52.091Z,99179.03
2022-08-29T02:18:18.661Z,99187.69
2022-08-29T02:20:45.614Z,99176.41
2022-08-29T02:23:29.893Z,99208.91
2022-08-29T02:25:57.353Z,99207.69
2022-08-29T02:28:23.922Z,99215.88
2022-08-29T02:30:56.978Z,99215.88
2022-08-29T02:33:24.620Z,99218.19
2022-08-29T02:35:51.993Z,99207.22
2022-08-29T02:38:19.045Z,99205.19
2022-08-29T02:40:46.880Z,99200.59
2022-08-29T02:43:13.618Z,99214.56
2022-08-29T02:45:42.031Z,99187.50
2022-08-29T02:48:09.397Z,99149.50
2022-08-29T02:50:36.145Z,99149.75
2022-08-29T02:53:02.765Z,99100.56
2022-08-29T02:55:29.392Z,99145.88
2022-08-29T02:57:55.959Z,99108.97
2022-08-29T03:00:25.468Z,99125.09
2022-08-29T03:02:53.169Z,99121.47
2022-08-29T03:05:23.446Z,99126.41
2022-08-29T03:07:51.099Z,99117.97
2022-08-29T03:10:19.191Z,99124.13
2022-08-29T03:12:46.766Z,99111.03
2022-08-29T03:15:14.382Z,99129.66
2022-08-29T03:17:40.966Z,99130.94
2022-08-29T03:20:08.717Z,99145.00
2022-08-29T03:22:35.454Z,99148.34
2022-08-29T03:25:03.325Z,99147.19
2022-08-29T03:27:31.866Z,99142.88
2022-08-29T03:29:59.178Z,99139.03
2022-08-29T03:32:26.559Z,99107.03
2022-08-29T03:34:54.346Z,99087.81
2022-08-29T03:37:20.932Z,99122.22
2022-08-29T03:39:47.678Z,99125.56
2022-08-29T03:42:14.270Z,99097.78
2022-08-29T03:44:42.023Z,99085.22
2022-08-29T03:47:11.065Z,99063.75
2022-08-29T03:49:37.961Z,99056.38
2022-08-29T03:52:05.972Z,99055.00
2022-08-29T03:54:33.008Z,99051.31
2022-08-29T03:56:59.575Z,99010.13
2022-08-29T03:59:26.206Z,99009.34
2022-08-29T04:01:52.869Z,99014.63
2022-08-29T04:04:38.721Z,99008.22
2022-08-29T04:07:06.574Z,98993.13
2022-08-29T04:09:33.338Z,99001.84
2022-08-29T04:12:00.090Z,98998.19
2022-08-29T04:14:26.771Z,98993.72
2022-08-29T04:16:53.344Z,99000.13
2022-08-29T04:19:21.325Z,98997.31
2022-08-29T04:21:49.016Z,99004.59
2022-08-29T04:24:16.650Z,98999.69
2022-08-29T04:26:43.320Z,98995.81
2022-08-29T04:29:11.698Z,98986.00
2022-08-29T04:31:39.374Z,99007.94
2022-08-29T04:34:07.398Z,98998.03
2022-08-29T04:36:35.183Z,99002.06
2022-08-29T04:39:01.839Z,99012.47
2022-08-29T04:41:29.092Z,99015.91
2022-08-29T04:43:55.674Z,99025.78
2022-08-29T04:46:24.145Z,99023.59
2022-08-29T04:48:51.602Z,99009.00
2022-08-29T04:51:18.173Z,99011.75
2022-08-29T04:53:44.973Z,99022.97
2022-08-29T04:56:12.901Z,99017.88
2022-08-29T04:58:41.250Z,99027.72
2022-08-29T05:01:14.100Z,99025.44
2022-08-29T05:03:40.707Z,99018.91
2022-08-29T05:06:12.190Z,99029.09
2022-08-29T05:08:40.859Z,99029.28
2022-08-29T05:11:14.278Z,99028.00
2022-08-29T05:13:42.595Z,99009.91
2022-08-29T05:16:11.427Z,99022.78
2022-08-29T05:18:39.666Z,99021.22
2022-08-29T05:21:06.581Z,99030.13
2022-08-29T05:23:33.483Z,99020.91
2022-08-29T05:26:02.109Z,99039.31
2022-08-29T05:28:30.574Z,99022.00
2022-08-29T05:30:57.673Z,99033.19
2022-08-29T05:33:24.494Z,99034.34
2022-08-29T05:35:51.134Z,99022.78
2022-08-29T05:38:18.103Z,99036.88
2022-08-29T05:40:44.776Z,99039.13
2022-08-29T05:43:11.728Z,99037.03
2022-08-29T05:45:39.527Z,99039.78
2022-08-29T05:48:08.066Z,99024.56
2022-08-29T05:50:41.879Z,99033.09
2022-08-29T05:53:09.934Z,99037.06
2022-08-29T05:55:41.254Z,99026.75
2022-08-29T05:58:07.869Z,99032.34
2022-08-29T06:00:34.622Z,99038.41
2022-08-29T06:03:01.365Z,99033.56
2022-08-29T06:05:28.079Z,99040.66
2022-08-29T06:07:54.695Z,99023.34
2022-08-29T06:10:21.473Z,99046.25
2022-08-29T06:12:48.162Z,99040.16
2022-08-29T06:15:14.808Z,99051.53
2022-08-29T06:17:41.472Z,99043.63
2022-08-29T06:20:09.714Z,99049.81
2022-08-29T06:22:40.298Z,99061.50
2022-08-29T06:25:35.106Z,99054.94
2022-08-29T06:27:54.846Z,99064.91
2022-08-29T06:30:21.566Z,99055.00
2022-08-29T06:32:48.614Z,99073.34
2022-08-29T06:35:15.335Z,99057.13
2022-08-29T06:37:42.535Z,99069.56
2022-08-29T06:40:09.627Z,99047.38
2022-08-29T06:42:36.252Z,99067.59
2022-08-29T06:45:02.919Z,99074.13
2022-08-29T06:47:29.515Z,99082.31
2022-08-29T06:49:56.108Z,99082.84
2022-08-29T06:52:22.708Z,99081.47
2022-08-29T06:57:16.035Z,99081.81
2022-08-29T06:59:42.712Z,99082.47
2022-08-29T07:02:09.358Z,99102.88
2022-08-29T07:04:36.295Z,99088.69
2022-08-29T07:07:02.898Z,99109.72
2022-08-29T07:09:31.229Z,99061.41
2022-08-29T07:11:57.895Z,99106.69
2022-08-29T07:14:24.484Z,99099.88
2022-08-29T07:16:51.135Z,99092.50
2022-08-29T07:19:17.736Z,99089.59
2022-08-29T07:21:44.290Z,99106.69
2022-08-29T07:24:10.970Z,99110.31
2022-08-29T07:26:42.419Z,99088.84
2022-08-29T07:29:15.465Z,99089.22
2022-08-29T07:31:42.394Z,99102.06
2022-08-29T07:34:09.511Z,99097.84
2022-08-29T07:36:37.168Z,99096.50
2022-08-29T07:39:08.828Z,99088.72
2022-08-29T07:41:36.144Z,99081.06
2022-08-29T07:44:03.046Z,99093.66
2022-08-29T07:46:29.780Z,99104.56
2022-08-29T07:48:58.507Z,99087.41
2022-08-29T07:51:25.425Z,99104.94
2022-08-29T07:53:52.723Z,99102.56
2022-08-29T07:56:27.058Z,99097.72
2022-08-29T07:58:54.912Z,99107.16
2022-08-29T08:01:22.039Z,99102.63
2022-08-29T08:03:50.748Z,99082.28
2022-08-29T08:06:19.425Z,99079.41
2022-08-29T08:08:52.260Z,99086.06
2022-08-29T08:11:20.875Z,99084.63
2022-08-29T08:13:48.026Z,99104.91
2022-08-29T08:16:17.619Z,99087.63
2022-08-29T08:18:45.051Z,99111.38
2022-08-29T08:21:12.270Z,99094.91
2022-08-29T08:23:40.127Z,99105.84
2022-08-29T08:26:07.838Z,99089.75
2022-08-29T08:28:34.508Z,99078.34
2022-08-29T08:31:05.934Z,99083.31
2022-08-29T08:33:35.287Z,99095.47
2022-08-29T08:36:03.783Z,99097.06
2022-08-29T08:38:31.563Z,99084.16
2022-08-29T08:41:10.861Z,99101.41
2022-08-29T08:43:45.897Z,99096.56
2022-08-29T08:46:12.599Z,99097.97
2022-08-29T08:48:40.177Z,99097.00
2022-08-29T08:51:07.941Z,99101.66
2022-08-29T08:53:36.462Z,99098.00
2022-08-29T08:56:11.783Z,99085.72
2022-08-29T08:58:50.394Z,99099.69
2022-08-29T09:01:34.874Z,99062.84
2022-08-29T09:04:23.224Z,99095.44
2022-08-29T09:07:05.120Z,99099.81
2022-08-29T09:09:47.613Z,99077.13
2022-08-29T09:12:20.231Z,99096.50
2022-08-29T09:14:56.530Z,99093.84
2022-08-29T09:17:41.368Z,99096.63
2022-08-29T09:20:14.045Z,99103.84
2022-08-29T09:22:42.411Z,99097.88
2022-08-29T09:25:11.340Z,99103.06
2022-08-29T09:27:38.701Z,99092.00
2022-08-29T09:30:20.830Z,99090.41
2022-08-29T09:33:20.019Z,99087.81
2022-08-29T09:35:51.901Z,99094.69
2022-08-29T09:38:18.424Z,99093.66
2022-08-29T09:40:53.509Z,99088.31
2022-08-29T09:43:22.142Z,99094.44
2022-08-29T09:46:09.445Z,99090.09
2022-08-29T09:48:54.235Z,99083.50
2022-08-29T09:51:23.475Z,99082.53
2022-08-29T09:53:51.876Z,99087.78
2022-08-29T09:56:25.081Z,99089.69
2022-08-29T09:59:27.931Z,99091.63
2022-08-29T10:02:30.419Z,99090.00
2022-08-29T10:05:05.873Z,99091.03
2022-08-29T10:07:51.609Z,99082.75
2022-08-29T10:10:23.070Z,99070.47
2022-08-29T10:12:57.425Z,99064.44
2022-08-29T10:15:49.454Z,99080.75
2022-08-29T10:19:01.384Z,99070.22
2022-08-29T10:21:47.251Z,99072.66
2022-08-29T10:25:02.059Z,99080.06
2022-08-29T10:27:40.242Z,99073.06
2022-08-29T10:30:26.526Z,99069.28
2022-08-29T10:33:11.860Z,99077.72
2022-08-29T10:35:54.568Z,99069.72
2022-08-29T10:38:56.989Z,99066.78
2022-08-29T10:41:26.658Z,99075.16
2022-08-29T10:44:09.376Z,99070.38
2022-08-29T10:46:59.095Z,99070.38
2022-08-29T10:49:44.449Z,99068.34
2022-08-29T10:52:17.472Z,99057.94
2022-08-29T10:55:05.626Z,99058.16
2022-08-29T10:57:54.938Z,99067.69
2022-08-29T11:00:29.421Z,99051.09
2022-08-29T11:03:15.126Z,99063.78
2022-08-29T11:05:53.941Z,99059.81
2022-08-29T11:08:34.641Z,99061.06
2022-08-29T11:11:01.634Z,99054.84
2022-08-29T11:13:38.437Z,99067.72
2022-08-29T11:16:24.592Z,99042.75
2022-08-29T11:19:06.023Z,99062.25
2022-08-29T11:21:37.824Z,99056.78
2022-08-29T11:24:05.559Z,99042.84
2022-08-29T11:26:32.125Z,99056.81
2022-08-29T11:29:37.740Z,99054.41
2022-08-29T11:32:10.170Z,99064.41
2022-08-29T11:34:42.610Z,99064.81
2022-08-29T11:37:37.213Z,99059.59
2022-08-29T11:40:10.123Z,99051.22
2022-08-29T11:42:55.459Z,99062.50
2022-08-29T11:45:29.644Z,99061.63
2022-08-29T11:48:10.140Z,99055.41
2022-08-29T11:50:38.598Z,99058.06
2022-08-29T11:53:16.771Z,99051.91
2022-08-29T11:55:45.115Z,99060.88
2022-08-29T11:58:14.824Z,99051.31
2022-08-29T12:00:49.019Z,99021.56
2022-08-29T12:03:45.389Z,99045.03
2022-08-29T12:06:14.739Z,99051.88
2022-08-29T12:08:54.198Z,99052.75
2022-08-29T12:11:21.242Z,99050.88
2022-08-29T12:13:48.288Z,99048.97
2022-08-29T12:16:18.723Z,99045.66
2022-08-29T12:18:57.811Z,99027.19
2022-08-29T12:21:36.498Z,99041.69
2022-08-29T12:24:08.128Z,99030.69
2022-08-29T12:26:46.185Z,99038.19
2022-08-29T12:29:26.685Z,99032.53
2022-08-29T12:32:23.826Z,99038.72
2022-08-29T12:35:08.276Z,99034.03
2022-08-29T12:38:10.701Z,99025.63
2022-08-29T12:40:43.393Z,99033.25
2022-08-29T12:43:23.639Z,99027.16
2022-08-29T12:45:51.644Z,99032.25
2022-08-29T12:48:27.663Z,99032.03
2022-08-29T12:50:54.287Z,99037.25
2022-08-29T12:53:25.419Z,99026.63
2022-08-29T12:55:57.527Z,99028.56
2022-08-29T12:58:45.330Z,99029.91
2022-08-29T13:01:38.021Z,99031.03
2022-08-29T13:04:10.842Z,99027.63
2022-08-29T13:06:38.488Z,99024.41
2022-08-29T13:09:06.342Z,99029.44
2022-08-29T13:11:33.534Z,99016.91
2022-08-29T13:14:11.970Z,99022.22
2022-08-29T13:16:40.202Z,99017.06
2022-08-29T13:19:19.545Z,99028.44
2022-08-29T13:21:46.118Z,99016.78
2022-08-29T13:24:20.789Z,99019.75
2022-08-29T13:27:04.425Z,99020.34
2022-08-29T13:29:37.128Z,99019.75
2022-08-29T13:32:23.148Z,99013.09
2022-08-29T13:35:01.277Z,99019.09
2022-08-29T13:37:34.381Z,99026.59
2022-08-29T13:40:41.192Z,99036.97
2022-08-29T13:43:07.986Z,99034.47
2022-08-29T13:45:35.621Z,99023.63
2022-08-29T13:48:13.354Z,99002.06
2022-08-29T13:50:40.723Z,99057.75
2022-08-29T13:53:07.459Z,99054.22
2022-08-29T13:55:34.658Z,99060.66
2022-08-29T13:58:01.401Z,99067.38
2022-08-29T14:00:32.363Z,99053.38
2022-08-29T14:03:03.782Z,99048.38
2022-08-29T14:05:30.454Z,99055.25
2022-08-29T14:07:57.195Z,99039.25
2022-08-29T14:10:23.810Z,99038.44
2022-08-29T14:12:50.504Z,99038.84
2022-08-29T14:15:21.139Z,99036.34
2022-08-29T14:17:48.116Z,99042.78
2022-08-29T14:20:17.587Z,99032.19
2022-08-29T14:22:44.585Z,99032.00
2022-08-29T14:25:12.505Z,99035.09
2022-08-29T14:27:39.958Z,99038.41
2022-08-29T14:30:16.158Z,99039.69
2022-08-29T14:32:42.798Z,99047.28
2022-08-29T14:35:11.094Z,99037.91
2022-08-29T14:37:53.117Z,99026.50
2022-08-29T14:40:21.840Z,99039.75
2022-08-29T14:42:49.025Z,99051.13
2022-08-29T14:45:15.761Z,99064.41
2022-08-29T14:47:43.509Z,99048.53
2022-08-29T14:50:12.791Z,99055.78
2022-08-29T14:52:39.666Z,99047.63
2022-08-29T14:55:07.633Z,99046.91
2022-08-29T14:57:35.957Z,99049.78
2022-08-29T15:00:11.662Z,99044.53
2022-08-29T15:02:38.901Z,99032.59
2022-08-29T15:05:06.202Z,99046.47
2022-08-29T15:07:33.057Z,99038.31
2022-08-29T15:09:59.985Z,99038.59
2022-08-29T15:12:29.057Z,99021.63
2022-08-29T15:14:56.119Z,99034.59
2022-08-29T15:17:23.669Z,99024.66
2022-08-29T15:20:34.279Z,99022.56
2022-08-29T15:22:38.008Z,99010.88
2022-08-29T15:25:06.320Z,99016.38
2022-08-29T15:27:32.934Z,99020.34
2022-08-29T15:29:59.602Z,98987.25
2022-08-29T15:32:26.299Z,99022.34
2022-08-29T15:34:53.238Z,99018.22
2022-08-29T15:37:19.898Z,99015.19
2022-08-29T15:39:46.551Z,99010.81
2022-08-29T15:42:17.416Z,99001.66
2022-08-29T15:44:44.455Z,99018.59
2022-08-29T15:47:11.382Z,98995.91
2022-08-29T15:49:38.641Z,99014.88
2022-08-29T15:52:05.253Z,99017.09
2022-08-29T15:54:31.896Z,99014.91
2022-08-29T15:56:58.676Z,99019.53
2022-08-29T15:59:47.224Z,99023.97
2022-08-29T16:02:13.371Z,99027.66
2022-08-29T16:04:44.706Z,99026.53
2022-08-29T16:07:13.564Z,99032.50
2022-08-29T16:09:41.463Z,99012.06
2022-08-29T16:12:08.986Z,99025.44
2022-08-29T16:17:22.258Z,99042.66
2022-08-29T16:19:48.846Z,99036.28
2022-08-29T16:22:15.487Z,99038.78
2022-08-29T16:24:42.206Z,99041.28
2022-08-29T16:27:08.805Z,99040.34
2022-08-29T16:29:35.518Z,99039.78
2022-08-29T16:32:02.425Z,99046.59
2022-08-29T16:34:29.525Z,99043.03
2022-08-29T16:36:57.166Z,99025.84
2022-08-29T16:39:24.033Z,99057.13
2022-08-29T16:41:50.842Z,99060.19
2022-08-29T16:44:17.442Z,99056.47
2022-08-29T16:46:44.053Z,99064.34
2022-08-29T16:49:13.255Z,99058.84
2022-08-29T16:51:39.913Z,99064.41
2022-08-29T16:54:06.507Z,99063.41
2022-08-29T16:56:33.108Z,99068.69
2022-08-29T16:59:00.170Z,99073.91
2022-08-29T17:01:35.502Z,99056.16
2022-08-29T17:04:03.458Z,99070.44
2022-08-29T17:06:30.987Z,99069.41
2022-08-29T17:08:58.627Z,99060.91
2022-08-29T17:11:25.794Z,99063.34
2022-08-29T17:13:52.323Z,99068.44
2022-08-29T17:16:19.611Z,99070.50
2022-08-29T17:18:46.799Z,99052.63
2022-08-29T17:21:13.818Z,99077.16
2022-08-29T17:23:40.842Z,99067.34
2022-08-29T17:26:10.461Z,99077.84
2022-08-29T17:28:38.315Z,99081.84
2022-08-29T17:31:05.756Z,99082.41
2022-08-29T17:33:33.168Z,99075.75
2022-08-29T17:36:00.132Z,99074.34
2022-08-29T17:38:27.437Z,99087.13
2022-08-29T17:41:02.323Z,99083.81
2022-08-29T17:43:32.815Z,99080.28
2022-08-29T17:45:59.606Z,99075.03
2022-08-29T17:48:26.386Z,99076.59
2022-08-29T17:50:54.007Z,99087.25
2022-08-29T17:53:21.190Z,99098.91
2022-08-29T17:55:47.921Z,99093.34
2022-08-29T17:58:15.026Z,99091.22
2022-08-29T18:00:41.861Z,99090.84
2022-08-29T18:03:08.493Z,99094.66
2022-08-29T18:05:35.133Z,99108.09
2022-08-29T18:08:02.023Z,99101.97
2022-08-29T18:10:28.859Z,99104.56
2022-08-29T18:12:55.469Z,99113.53
2022-08-29T18:15:22.264Z,99107.72
2022-08-29T18:17:51.402Z,99099.63
2022-08-29T18:20:19.650Z,99112.31
2022-08-29T18:22:47.549Z,99119.09
2022-08-29T18:25:14.895Z,99108.78
2022-08-29T18:27:49.254Z,99122.47
2022-08-29T18:30:16.629Z,99125.22
2022-08-29T18:32:43.703Z,99126.03
2022-08-29T18:35:11.071Z,99136.06
2022-08-29T18:37:37.757Z,99116.81
2022-08-29T18:40:05.795Z,99126.22
2022-08-29T18:42:46.138Z,99124.13
2022-08-29T18:45:13.310Z,99129.19
2022-08-29T18:47:40.101Z,99136.34
2022-08-29T18:50:25.914Z,99146.22
2022-08-29T18:52:55.303Z,99139.09
2022-08-29T18:55:23.391Z,99126.91
2022-08-29T18:57:50.635Z,99132.75
2022-08-29T19:00:17.866Z,99140.16
2022-08-29T19:02:44.999Z,99123.47
2022-08-29T19:05:11.954Z,99134.66
2022-08-29T19:07:39.101Z,99107.28
2022-08-29T19:10:06.642Z,99132.19
2022-08-29T19:12:33.877Z,99139.19
2022-08-29T19:15:00.534Z,99125.88
2022-08-29T19:17:27.242Z,99149.19
2022-08-29T19:20:12.526Z,99129.47
2022-08-29T19:22:39.392Z,99134.81
2022-08-29T19:25:08.678Z,99131.50
2022-08-29T19:27:43.794Z,99149.59
2022-08-29T19:30:13.427Z,99138.59
2022-08-29T19:32:40.557Z,99151.50
2022-08-29T19:35:07.765Z,99151.88
2022-08-29T19:37:34.382Z,99145.16
2022-08-29T19:40:01.830Z,99147.66
2022-08-29T19:42:28.409Z,99156.22
2022-08-29T19:44:56.475Z,99160.41
2022-08-29T19:47:23.934Z,99156.41
2022-08-29T19:49:50.952Z,99158.44
2022-08-29T19:52:18.006Z,99158.91
2022-08-29T19:54:44.632Z,99156.41
2022-08-29T19:57:14.639Z,99162.25
2022-08-29T19:59:42.339Z,99162.25
2022-08-29T20:02:09.465Z,99164.13
2022-08-29T20:04:36.509Z,99157.41
2022-08-29T20:07:03.957Z,99158.78
2022-08-29T20:09:31.600Z,99165.28
2022-08-29T20:11:59.272Z,99164.94
2022-08-29T20:14:25.987Z,99170.97
2022-08-29T20:16:52.717Z,99159.06
2022-08-29T20:19:21.398Z,99151.03
2022-08-29T20:21:49.189Z,99165.94
2022-08-29T20:24:16.654Z,99160.22
2022-08-29T20:26:44.850Z,99160.56
2022-08-29T20:29:12.262Z,99161.72
2022-08-29T20:31:39.778Z,99167.06
2022-08-29T20:34:06.535Z,99162.22
2022-08-29T20:36:51.634Z,99145.16
2022-08-29T20:39:18.698Z,99175.59
2022-08-29T20:41:55.580Z,99160.72
2022-08-29T20:44:23.922Z,99167.06
2022-08-29T20:46:52.025Z,99164.38
2022-08-29T20:49:21.833Z,99159.19
2022-08-29T20:51:49.011Z,99164.88
2022-08-29T20:54:19.475Z,99167.03
2022-08-29T20:56:46.674Z,99159.81
2022-08-29T20:59:13.471Z,99137.03
2022-08-29T21:01:41.701Z,99153.94
2022-08-29T21:04:27.046Z,99147.88
2022-08-29T21:06:59.556Z,99164.13
2022-08-29T21:09:26.267Z,99163.09
2022-08-29T21:11:53.513Z,99171.94
2022-08-29T21:14:22.521Z,99168.09
2022-08-29T21:16:53.393Z,99171.44
2022-08-29T21:19:21.205Z,99170.63
2022-08-29T21:21:48.495Z,99163.06
2022-08-29T21:24:15.785Z,99163.25
2022-08-29T21:26:42.395Z,99165.09
2022-08-29T21:29:09.368Z,99171.75
2022-08-29T21:31:36.703Z,99168.13
2022-08-29T21:34:06.951Z,99167.28
2022-08-29T21:36:34.726Z,99183.81
2022-08-29T21:39:01.455Z,99188.97
2022-08-29T21:41:29.909Z,99187.09
2022-08-29T21:43:56.842Z,99176.66
2022-08-29T21:46:31.614Z,99193.25
2022-08-29T21:49:01.365Z,99186.38
2022-08-29T21:51:30.076Z,99182.03
2022-08-29T21:53:57.612Z,99183.41
2022-08-29T21:56:25.928Z,99181.00
2022-08-29T21:58:54.642Z,99169.56
2022-08-29T22:01:30.137Z,99195.81
2022-08-29T22:03:58.643Z,99192.56
2022-08-29T22:06:27.639Z,99200.72
2022-08-29T22:08:55.521Z,99210.56
2022-08-29T22:11:25.120Z,99200.06
2022-08-29T22:14:04.833Z,99198.47
2022-08-29T22:16:31.702Z,99203.78
2022-08-29T22:19:14.261Z,99174.38
2022-08-29T22:21:47.189Z,99207.03
2022-08-29T22:24:15.993Z,99221.22
2022-08-29T22:26:43.100Z,99215.00
2022-08-29T22:29:11.708Z,99215.91
2022-08-29T22:31:38.953Z,99222.41
2022-08-29T22:34:09.321Z,99221.59
2022-08-29T22:36:35.913Z,99228.41
2022-08-29T22:39:02.519Z,99230.00
2022-08-29T22:41:29.224Z,99233.22
2022-08-29T22:44:25.402Z,99238.16
2022-08-29T22:46:43.960Z,99233.16
2022-08-29T22:49:10.656Z,99230.38
2022-08-29T22:51:37.282Z,99232.81
2022-08-29T22:54:22.413Z,99235.25
2022-08-29T22:56:49.021Z,99242.66
2022-08-29T22:59:15.627Z,99246.22
2022-08-29T23:01:43.832Z,99243.25
2022-08-29T23:04:11.621Z,99246.06
2022-08-29T23:06:38.353Z,99237.44
2022-08-29T23:09:05.752Z,99236.72
2022-08-29T23:11:32.683Z,99243.91
2022-08-29T23:13:59.293Z,99250.38
2022-08-29T23:16:25.926Z,99243.56
2022-08-29T23:18:52.538Z,99224.66
2022-08-29T23:21:22.747Z,99258.22
2022-08-29T23:23:50.829Z,99258.06
2022-08-29T23:26:18.157Z,99261.34
2022-08-29T23:28:45.287Z,99250.84
2022-08-29T23:31:13.653Z,99258.59
2022-08-29T23:33:40.389Z,99266.81
2022-08-29T23:36:07.159Z,99270.47
2022-08-29T23:38:33.868Z,99263.91
2022-08-29T23:41:01.046Z,99261.63
2022-08-29T23:43:27.926Z,99269.78
2022-08-29T23:45:55.710Z,99269.25
2022-08-29T23:48:26.020Z,99275.13
2022-08-29T23:50:53.662Z,99280.72
2022-08-29T23:53:21.720Z,99280.06
2022-08-29T23:55:48.864Z,99285.38
2022-08-29T23:58:16.006Z,99277.50
